Darstellungsparameter: Aktuell verwendete Einstellungen:
Skalierung der Graphiken ... ?
xyx+y,   Skalierungsfaktor:      Skalierung: Modus: x, Faktor: 1
Darstellungszeitraum ... ?
Vom - - bis: - -   Zeitraum: 15.05.2017 - 15.05.2017
Min/Max/Avg-Anzeige ... ?
Zeige MMA aktuell
Zeige MMA Monat
Zeige MMA alles
Zeige --A aktuell
Zeige --A Monat
Zeige --A alles
Keine MMA-Anzeige
MMA:
Average (ber die Originaldaten)
MMA-Basis: 15.05.2017 - 15.05.2017
Quicknavigation für Darstellung... ?
Tage:      1T, 2T, 3T, 5T -1T -2T -3T -5T +1T +2T +3T +5T
Wochen: 1W, 2W, 3W -1W -2W -3W +1W +2W +3W
Monate: 1M, 3M, 6M -1M -3M -6M +1M +3M +6M
Jahre:    1J, 3J, 5J, 10J -1J -3J -5J -10J +1J +3J +5J +10J
Nutze für die Darstellung ... ?
Originaldaten oder Mittelwerte auf ...
Stundenbasis Tagesbasis Wochenbasis
Monatsbasis Jahresbasis      Datenbasis: Original-Daten
Darstellen als:
Statistik (Auto) Statistik J:M      Darstellung:
Zur Graphik,    zurück zur Übersicht aller Sensoren.
 
Tabellarische Datenbersicht: ?
 
Sensor: Nr:Datum:Temp:Abs-Feuchte:Windchill:Wind:
Aussen-T/F 1 15-05-2017 00:00:00 11.7 C 9.73 g/m*3 11.7 C 0 km/h
2 15-05-2017 00:05:00 11.6 C 9.67 g/m*3 11.6 C 0 km/h
3 15-05-2017 00:10:00 11.6 C 9.67 g/m*3 11.6 C 0 km/h
4 15-05-2017 00:15:00 11.5 C 9.71 g/m*3 11.5 C 0 km/h
5 15-05-2017 00:20:00 11.5 C 9.71 g/m*3 11.5 C 0 km/h
6 15-05-2017 00:25:00 11.4 C 9.65 g/m*3 11.4 C 3.2 km/h
7 15-05-2017 00:30:00 11.4 C 9.65 g/m*3 11.4 C 0 km/h
8 15-05-2017 00:35:00 11.3 C 9.59 g/m*3 11.3 C 0 km/h
9 15-05-2017 00:40:00 11.2 C 9.53 g/m*3 11.2 C 0 km/h
10 15-05-2017 00:45:00 11.2 C 9.53 g/m*3 11.2 C 6.4 km/h
11 15-05-2017 00:50:00 11.2 C 9.53 g/m*3 11.2 C 6.4 km/h
12 15-05-2017 00:55:00 11.1 C 9.47 g/m*3 11.1 C 1.6 km/h
13 15-05-2017 01:00:00 11.1 C 9.47 g/m*3 11.1 C 3.2 km/h
14 15-05-2017 01:05:00 11 C 9.41 g/m*3 11 C 3.2 km/h
15 15-05-2017 01:10:00 11 C 9.41 g/m*3 11 C 0 km/h
16 15-05-2017 01:15:00 11 C 9.41 g/m*3 11 C 3.2 km/h
17 15-05-2017 01:20:00 11 C 9.51 g/m*3 11 C 0 km/h
18 15-05-2017 01:25:00 11 C 9.51 g/m*3 11 C 0 km/h
19 15-05-2017 01:30:00 11 C 9.41 g/m*3 11 C 0 km/h
20 15-05-2017 01:35:00 10.9 C 9.35 g/m*3 10.9 C 0 km/h
21 15-05-2017 01:40:00 10.9 C 9.45 g/m*3 10.9 C 0 km/h
22 15-05-2017 01:45:00 10.9 C 9.45 g/m*3 10.9 C 4.8 km/h
23 15-05-2017 01:50:00 10.9 C 9.45 g/m*3 10.9 C 0 km/h
24 15-05-2017 01:55:00 10.8 C 9.39 g/m*3 10.8 C 0 km/h
25 15-05-2017 02:00:00 10.7 C 9.23 g/m*3 10.7 C 0 km/h
Sensor: Nr:Datum:Temp:Abs-Feuchte:Windchill:Wind:
Aussen-T/F 26 15-05-2017 02:05:00 10.6 C 9.17 g/m*3 10.6 C 0 km/h
27 15-05-2017 02:10:00 10.5 C 9.12 g/m*3 10.5 C 1.6 km/h
28 15-05-2017 02:15:00 10.4 C 9.06 g/m*3 10.4 C 0 km/h
29 15-05-2017 02:20:00 10.3 C 9.1 g/m*3 10.3 C 0 km/h
30 15-05-2017 02:25:00 10.3 C 9.1 g/m*3 10.3 C 1.6 km/h
31 15-05-2017 02:30:00 10.3 C 9.1 g/m*3 10.3 C 0 km/h
32 15-05-2017 02:35:00 10.2 C 9.04 g/m*3 10.2 C 0 km/h
33 15-05-2017 02:40:00 10.2 C 9.04 g/m*3 10.2 C 3.2 km/h
34 15-05-2017 02:45:00 10.2 C 9.04 g/m*3 10.2 C 1.6 km/h
35 15-05-2017 02:50:00 10.1 C 8.98 g/m*3 10.1 C 4.8 km/h
36 15-05-2017 02:55:00 9.9 C 8.87 g/m*3 9.9 C 1.6 km/h
37 15-05-2017 03:00:00 9.9 C 8.87 g/m*3 9.9 C 0 km/h
38 15-05-2017 03:05:00 9.9 C 8.87 g/m*3 9.9 C 0 km/h
39 15-05-2017 03:10:00 9.9 C 8.87 g/m*3 9.9 C 4.8 km/h
40 15-05-2017 03:15:00 9.9 C 8.87 g/m*3 9.9 C 4.8 km/h
41 15-05-2017 03:20:00 10 C 8.93 g/m*3 10 C 3.2 km/h
42 15-05-2017 03:25:00 9.9 C 8.87 g/m*3 9.9 C 1.6 km/h
43 15-05-2017 03:30:00 9.9 C 8.87 g/m*3 9.9 C 0 km/h
44 15-05-2017 03:35:00 9.8 C 8.81 g/m*3 9.8 C 0 km/h
45 15-05-2017 03:40:00 9.8 C 8.81 g/m*3 9.8 C 1.6 km/h
46 15-05-2017 03:45:00 9.8 C 8.81 g/m*3 9.8 C 4.8 km/h
47 15-05-2017 03:50:00 9.8 C 8.81 g/m*3 9.8 C 1.6 km/h
48 15-05-2017 03:55:00 9.7 C 8.76 g/m*3 9.7 C 3.2 km/h
49 15-05-2017 04:00:00 9.6 C 8.7 g/m*3 9.6 C 1.6 km/h
50 15-05-2017 04:05:00 9.6 C 8.7 g/m*3 9.6 C 3.2 km/h
Sensor: Nr:Datum:Temp:Abs-Feuchte:Windchill:Wind:
Aussen-T/F 51 15-05-2017 04:10:00 9.7 C 8.76 g/m*3 9.7 C 4.8 km/h
52 15-05-2017 04:15:00 9.6 C 8.7 g/m*3 9.6 C 3.2 km/h
53 15-05-2017 04:20:00 9.6 C 8.7 g/m*3 9.6 C 0 km/h
54 15-05-2017 04:25:00 9.6 C 8.7 g/m*3 9.6 C 4.8 km/h
55 15-05-2017 04:30:00 9.6 C 8.7 g/m*3 9.6 C 4.8 km/h
56 15-05-2017 04:35:00 9.5 C 8.65 g/m*3 9.5 C 4.8 km/h
57 15-05-2017 04:40:00 9.4 C 8.59 g/m*3 9.4 C 0 km/h
58 15-05-2017 04:45:00 9.3 C 8.54 g/m*3 9.3 C 0 km/h
59 15-05-2017 04:50:00 9.3 C 8.54 g/m*3 9.3 C 0 km/h
60 15-05-2017 04:55:00 9.3 C 8.54 g/m*3 9.3 C 0 km/h
61 15-05-2017 05:00:00 9.3 C 8.54 g/m*3 9.3 C 0 km/h
62 15-05-2017 05:05:00 9.4 C 8.68 g/m*3 9.4 C 0 km/h
63 15-05-2017 05:10:00 9.4 C 8.68 g/m*3 9.4 C 0 km/h
64 15-05-2017 05:15:00 9.4 C 8.59 g/m*3 9.4 C 0 km/h
65 15-05-2017 05:20:00 9.3 C 8.54 g/m*3 9.3 C 0 km/h
66 15-05-2017 05:25:00 9.2 C 8.48 g/m*3 9.2 C 0 km/h
67 15-05-2017 05:30:00 9.1 C 8.43 g/m*3 9.1 C 0 km/h
68 15-05-2017 05:35:00 9 C 8.38 g/m*3 9 C 0 km/h
69 15-05-2017 05:40:00 8.9 C 8.32 g/m*3 8.9 C 0 km/h
70 15-05-2017 05:45:00 9.1 C 8.52 g/m*3 9.1 C 1.6 km/h
71 15-05-2017 05:50:00 9.1 C 8.52 g/m*3 9.1 C 0 km/h
72 15-05-2017 05:55:00 9.1 C 8.52 g/m*3 9.1 C 0 km/h
73 15-05-2017 06:00:00 9 C 8.38 g/m*3 9 C 0 km/h
74 15-05-2017 06:05:00 8.9 C 8.32 g/m*3 8.9 C 0 km/h
75 15-05-2017 06:10:00 8.8 C 8.27 g/m*3 8.8 C 0 km/h
Sensor: Nr:Datum:Temp:Abs-Feuchte:Windchill:Wind:
Aussen-T/F 76 15-05-2017 06:15:00 8.7 C 8.22 g/m*3 8.7 C 0 km/h
77 15-05-2017 06:20:00 8.7 C 8.22 g/m*3 8.7 C 0 km/h
78 15-05-2017 06:25:00 8.6 C 8.16 g/m*3 8.6 C 0 km/h
79 15-05-2017 06:30:00 8.6 C 8.16 g/m*3 8.6 C 0 km/h
80 15-05-2017 06:35:00 8.6 C 8.16 g/m*3 8.6 C 0 km/h
81 15-05-2017 06:40:00 8.6 C 8.25 g/m*3 8.6 C 0 km/h
82 15-05-2017 06:45:00 8.7 C 8.3 g/m*3 8.7 C 0 km/h
83 15-05-2017 06:50:00 8.7 C 8.3 g/m*3 8.7 C 1.6 km/h
84 15-05-2017 06:55:00 8.8 C 8.36 g/m*3 8.8 C 0 km/h
85 15-05-2017 07:00:00 8.9 C 8.41 g/m*3 8.9 C 0 km/h
86 15-05-2017 07:05:00 9.1 C 8.52 g/m*3 9.1 C 0 km/h
87 15-05-2017 07:10:00 9.2 C 8.57 g/m*3 9.2 C 0 km/h
88 15-05-2017 07:15:00 9.3 C 8.63 g/m*3 9.3 C 1.6 km/h
89 15-05-2017 07:20:00 9.3 C 8.63 g/m*3 9.3 C 0 km/h
90 15-05-2017 07:25:00 9.3 C 8.63 g/m*3 9.3 C 1.6 km/h
91 15-05-2017 07:30:00 9.3 C 8.63 g/m*3 9.3 C 0 km/h
92 15-05-2017 07:35:00 9.4 C 8.68 g/m*3 9.4 C 0 km/h
93 15-05-2017 07:40:00 9.4 C 8.68 g/m*3 9.4 C 0 km/h
94 15-05-2017 07:45:00 9.6 C 8.79 g/m*3 9.6 C 0 km/h
95 15-05-2017 07:50:00 9.8 C 8.91 g/m*3 9.8 C 0 km/h
96 15-05-2017 07:55:00 10 C 9.11 g/m*3 10 C 0 km/h
97 15-05-2017 08:00:00 10.2 C 9.14 g/m*3 10.2 C 0 km/h
98 15-05-2017 08:05:00 10.3 C 9.19 g/m*3 10.3 C 0 km/h
99 15-05-2017 08:10:00 10.4 C 9.35 g/m*3 10.4 C 0 km/h
100 15-05-2017 08:15:00 10.5 C 9.31 g/m*3 10.5 C 0 km/h
Sensor: Nr:Datum:Temp:Abs-Feuchte:Windchill:Wind:
Aussen-T/F 101 15-05-2017 08:20:00 10.6 C 9.37 g/m*3 10.6 C 0 km/h
102 15-05-2017 08:25:00 10.8 C 9.59 g/m*3 10.8 C 0 km/h
103 15-05-2017 08:30:00 10.8 C 9.49 g/m*3 10.8 C 0 km/h
104 15-05-2017 08:35:00 11 C 9.61 g/m*3 11 C 0 km/h
105 15-05-2017 08:40:00 11.2 C 9.73 g/m*3 11.2 C 1.6 km/h
106 15-05-2017 08:45:00 11.4 C 9.96 g/m*3 11.4 C 3.2 km/h
107 15-05-2017 08:50:00 11.4 C 9.85 g/m*3 11.4 C 1.6 km/h
108 15-05-2017 08:55:00 11.5 C 9.92 g/m*3 11.5 C 3.2 km/h
109 15-05-2017 09:00:00 11.6 C 9.98 g/m*3 11.6 C 1.6 km/h
110 15-05-2017 09:05:00 11.8 C 10.1 g/m*3 11.8 C 3.2 km/h
111 15-05-2017 09:10:00 11.9 C 10.06 g/m*3 11.9 C 3.2 km/h
112 15-05-2017 09:15:00 12 C 10.12 g/m*3 12 C 1.6 km/h
113 15-05-2017 09:20:00 12.2 C 10.25 g/m*3 12.2 C 1.6 km/h
114 15-05-2017 09:25:00 12.3 C 10.32 g/m*3 12.3 C 0 km/h
115 15-05-2017 09:30:00 12.6 C 10.51 g/m*3 12.6 C 3.2 km/h
116 15-05-2017 09:35:00 12.7 C 10.46 g/m*3 12.7 C 0 km/h
117 15-05-2017 09:40:00 12.8 C 10.42 g/m*3 12.8 C 1.6 km/h
118 15-05-2017 09:45:00 13 C 10.43 g/m*3 13 C 1.6 km/h
119 15-05-2017 09:50:00 13.2 C 10.45 g/m*3 13.2 C 3.2 km/h
120 15-05-2017 09:55:00 13.3 C 10.4 g/m*3 13.3 C 3.2 km/h
121 15-05-2017 10:00:00 13.4 C 10.46 g/m*3 13.4 C 4.8 km/h
122 15-05-2017 10:05:00 13.7 C 10.42 g/m*3 13.7 C 4.8 km/h
123 15-05-2017 10:10:00 13.9 C 10.55 g/m*3 13.9 C 1.6 km/h
124 15-05-2017 10:15:00 14.1 C 10.56 g/m*3 14.1 C 0 km/h
125 15-05-2017 10:20:00 14.3 C 10.81 g/m*3 14.3 C 0 km/h
Sensor: Nr:Datum:Temp:Abs-Feuchte:Windchill:Wind:
Aussen-T/F 126 15-05-2017 10:25:00 14.5 C 10.82 g/m*3 14.5 C 4.8 km/h
127 15-05-2017 10:30:00 14.6 C 10.64 g/m*3 14.6 C 6.4 km/h
128 15-05-2017 10:35:00 14.6 C 10.51 g/m*3 14.6 C 4.8 km/h
129 15-05-2017 10:40:00 14.7 C 10.58 g/m*3 14.7 C 1.6 km/h
130 15-05-2017 10:45:00 14.7 C 10.7 g/m*3 14.7 C 4.8 km/h
131 15-05-2017 10:50:00 14.8 C 10.77 g/m*3 14.8 C 3.2 km/h
132 15-05-2017 10:55:00 14.8 C 10.77 g/m*3 14.8 C 4.8 km/h
133 15-05-2017 11:00:00 14.8 C 10.77 g/m*3 14.8 C 1.6 km/h
134 15-05-2017 11:05:00 14.9 C 10.83 g/m*3 14.9 C 6.4 km/h
135 15-05-2017 11:10:00 14.9 C 10.83 g/m*3 14.9 C 4.8 km/h
136 15-05-2017 11:15:00 15.1 C 10.97 g/m*3 15.1 C 4.8 km/h
137 15-05-2017 11:20:00 15.2 C 10.77 g/m*3 15.2 C 3.2 km/h
138 15-05-2017 11:25:00 15.3 C 10.84 g/m*3 15.3 C 3.2 km/h
139 15-05-2017 11:30:00 15.4 C 10.77 g/m*3 15.4 C 8.1 km/h
140 15-05-2017 11:35:00 15.6 C 10.91 g/m*3 15.6 C 4.8 km/h
141 15-05-2017 11:40:00 15.7 C 10.84 g/m*3 15.7 C 3.2 km/h
142 15-05-2017 11:45:00 15.9 C 10.97 g/m*3 15.9 C 4.8 km/h
143 15-05-2017 11:50:00 16.2 C 11.17 g/m*3 16.2 C 4.8 km/h
144 15-05-2017 11:55:00 16.3 C 10.82 g/m*3 16.3 C 3.2 km/h
145 15-05-2017 12:00:00 16.4 C 10.75 g/m*3 16.4 C 6.4 km/h
146 15-05-2017 12:05:00 16.5 C 10.67 g/m*3 16.5 C 3.2 km/h
147 15-05-2017 12:10:00 16.6 C 10.45 g/m*3 16.6 C 4.8 km/h
148 15-05-2017 12:15:00 16.7 C 9.95 g/m*3 16.7 C 4.8 km/h
149 15-05-2017 12:20:00 16.8 C 9.87 g/m*3 16.8 C 4.8 km/h
150 15-05-2017 12:25:00 16.9 C 9.78 g/m*3 16.9 C 3.2 km/h
Sensor: Nr:Datum:Temp:Abs-Feuchte:Windchill:Wind:
Aussen-T/F 151 15-05-2017 12:30:00 17.1 C 9.9 g/m*3 17.1 C 6.4 km/h
152 15-05-2017 12:35:00 17.2 C 10.1 g/m*3 17.2 C 3.2 km/h
153 15-05-2017 12:40:00 17.4 C 10.23 g/m*3 17.4 C 4.8 km/h
154 15-05-2017 12:45:00 17.7 C 9.81 g/m*3 17.7 C 6.4 km/h
155 15-05-2017 12:50:00 17.8 C 9.56 g/m*3 17.8 C 6.4 km/h
156 15-05-2017 12:55:00 17.9 C 9.92 g/m*3 17.9 C 6.4 km/h
157 15-05-2017 13:00:00 17.9 C 10.38 g/m*3 17.9 C 4.8 km/h
158 15-05-2017 13:05:00 18 C 10.14 g/m*3 18 C 3.2 km/h
159 15-05-2017 13:10:00 18.2 C 10.26 g/m*3 18.2 C 8.1 km/h
160 15-05-2017 13:15:00 18.3 C 10.01 g/m*3 18.3 C 6.4 km/h
161 15-05-2017 13:20:00 18.4 C 9.59 g/m*3 18.4 C 8.1 km/h
162 15-05-2017 13:25:00 18.4 C 8.97 g/m*3 18.4 C 6.4 km/h
163 15-05-2017 13:30:00 18.4 C 10.07 g/m*3 18.4 C 0 km/h
164 15-05-2017 13:35:00 18.3 C 10.01 g/m*3 18.3 C 0 km/h
165 15-05-2017 13:40:00 18.1 C 9.43 g/m*3 18.1 C 1.6 km/h
166 15-05-2017 13:45:00 18.2 C 10.26 g/m*3 18.2 C 4.8 km/h
167 15-05-2017 13:50:00 18.2 C 10.1 g/m*3 18.2 C 3.2 km/h
168 15-05-2017 13:55:00 18.2 C 10.57 g/m*3 18.2 C 0 km/h
169 15-05-2017 14:00:00 18.1 C 10.2 g/m*3 18.1 C 1.6 km/h
170 15-05-2017 14:05:00 18.2 C 9.33 g/m*3 18.2 C 1.6 km/h
171 15-05-2017 14:10:00 18.4 C 10.22 g/m*3 18.4 C 4.8 km/h
172 15-05-2017 14:15:00 18.7 C 9.13 g/m*3 18.7 C 4.8 km/h
173 15-05-2017 14:20:00 18.9 C 9.23 g/m*3 18.9 C 3.2 km/h
174 15-05-2017 14:25:00 19.4 C 9.18 g/m*3 19.4 C 8.1 km/h
175 15-05-2017 14:30:00 19.7 C 9.51 g/m*3 19.7 C 4.8 km/h
Sensor: Nr:Datum:Temp:Abs-Feuchte:Windchill:Wind:
Aussen-T/F 176 15-05-2017 14:35:00 19.9 C 9.11 g/m*3 19.9 C 11.3 km/h
177 15-05-2017 14:40:00 20.1 C 8.87 g/m*3 20.1 C 11.3 km/h
178 15-05-2017 14:45:00 20.2 C 8.92 g/m*3 20.2 C 6.4 km/h
179 15-05-2017 14:50:00 20.3 C 8.62 g/m*3 20.3 C 6.4 km/h
180 15-05-2017 14:55:00 20.3 C 8.79 g/m*3 20.3 C 4.8 km/h
181 15-05-2017 15:00:00 20.4 C 8.85 g/m*3 20.4 C 9.7 km/h
182 15-05-2017 15:05:00 20.6 C 8.77 g/m*3 20.6 C 11.3 km/h
183 15-05-2017 15:10:00 20.7 C 8.1 g/m*3 20.7 C 9.7 km/h
184 15-05-2017 15:15:00 20.8 C 8.51 g/m*3 20.8 C 8.1 km/h
185 15-05-2017 15:20:00 21 C 8.43 g/m*3 21 C 11.3 km/h
186 15-05-2017 15:25:00 21.3 C 8.02 g/m*3 21.3 C 6.4 km/h
187 15-05-2017 15:30:00 21.6 C 7.97 g/m*3 21.6 C 11.3 km/h
188 15-05-2017 15:35:00 21.7 C 7.82 g/m*3 21.7 C 8.1 km/h
189 15-05-2017 15:40:00 22.1 C 8.2 g/m*3 22.1 C 4.8 km/h
190 15-05-2017 15:45:00 22.7 C 8.08 g/m*3 22.7 C 8.1 km/h
191 15-05-2017 15:50:00 23.1 C 7.65 g/m*3 23.1 C 8.1 km/h
192 15-05-2017 15:55:00 23.4 C 7.78 g/m*3 23.4 C 3.2 km/h
193 15-05-2017 16:00:00 23.8 C 8.6 g/m*3 23.8 C 8.1 km/h
194 15-05-2017 16:05:00 24.3 C 8.19 g/m*3 24.3 C 6.4 km/h
195 15-05-2017 16:10:00 24.6 C 7.88 g/m*3 24.6 C 6.4 km/h
196 15-05-2017 16:15:00 24.7 C 7.7 g/m*3 24.7 C 6.4 km/h
197 15-05-2017 16:20:00 24.7 C 7.7 g/m*3 24.7 C 8.1 km/h
198 15-05-2017 16:25:00 24.6 C 8.55 g/m*3 24.6 C 4.8 km/h
199 15-05-2017 16:30:00 24.8 C 7.51 g/m*3 24.8 C 4.8 km/h
200 15-05-2017 16:35:00 24.7 C 7.24 g/m*3 24.7 C 11.3 km/h
Sensor: Nr:Datum:Temp:Abs-Feuchte:Windchill:Wind:
Aussen-T/F 201 15-05-2017 16:40:00 24.6 C 7.43 g/m*3 24.6 C 8.1 km/h
202 15-05-2017 16:45:00 24.5 C 7.16 g/m*3 24.5 C 4.8 km/h
203 15-05-2017 16:50:00 24.6 C 7.43 g/m*3 24.6 C 3.2 km/h
204 15-05-2017 16:55:00 24.8 C 7.51 g/m*3 24.8 C 8.1 km/h
205 15-05-2017 17:00:00 24.9 C 7.1 g/m*3 24.9 C 4.8 km/h
206 15-05-2017 17:05:00 24.9 C 7.32 g/m*3 24.9 C 4.8 km/h
207 15-05-2017 17:10:00 25 C 7.37 g/m*3 25 C 8.1 km/h
208 15-05-2017 17:15:00 25 C 7.6 g/m*3 25 C 6.4 km/h
209 15-05-2017 17:20:00 25.1 C 8.1 g/m*3 25.1 C 6.4 km/h
210 15-05-2017 17:25:00 25.1 C 6.71 g/m*3 25.1 C 4.8 km/h
211 15-05-2017 17:30:00 25.2 C 6.75 g/m*3 25.2 C 9.7 km/h
212 15-05-2017 17:35:00 25.2 C 7.22 g/m*3 25.2 C 6.4 km/h
213 15-05-2017 17:40:00 25.1 C 7.64 g/m*3 25.1 C 4.8 km/h
214 15-05-2017 17:45:00 25.1 C 6.71 g/m*3 25.1 C 9.7 km/h
215 15-05-2017 17:50:00 25.1 C 6.94 g/m*3 25.1 C 6.4 km/h
216 15-05-2017 17:55:00 25.2 C 6.52 g/m*3 25.2 C 8.1 km/h
217 15-05-2017 18:00:00 25.3 C 6.79 g/m*3 25.3 C 8.1 km/h
218 15-05-2017 18:05:00 25.4 C 8 g/m*3 25.4 C 1.6 km/h
219 15-05-2017 18:10:00 25.7 C 6.94 g/m*3 25.7 C 8.1 km/h
220 15-05-2017 18:15:00 25.8 C 6.98 g/m*3 25.8 C 8.1 km/h
221 15-05-2017 18:20:00 25.8 C 6.74 g/m*3 25.8 C 8.1 km/h
222 15-05-2017 18:25:00 25.7 C 5.99 g/m*3 25.7 C 11.3 km/h
223 15-05-2017 18:30:00 25.4 C 5.65 g/m*3 25.4 C 8.1 km/h
224 15-05-2017 18:35:00 25.3 C 6.09 g/m*3 25.3 C 4.8 km/h
225 15-05-2017 18:40:00 25.4 C 6.36 g/m*3 25.4 C 6.4 km/h
Sensor: Nr:Datum:Temp:Abs-Feuchte:Windchill:Wind:
Aussen-T/F 226 15-05-2017 18:45:00 25.4 C 7.3 g/m*3 25.4 C 4.8 km/h
227 15-05-2017 18:50:00 25.6 C 6.9 g/m*3 25.6 C 4.8 km/h
228 15-05-2017 18:55:00 25.7 C 6.7 g/m*3 25.7 C 1.6 km/h
229 15-05-2017 19:00:00 25.6 C 7.86 g/m*3 25.6 C 4.8 km/h
230 15-05-2017 19:05:00 25.4 C 8.48 g/m*3 25.4 C 3.2 km/h
231 15-05-2017 19:10:00 25.3 C 6.09 g/m*3 25.3 C 6.4 km/h
232 15-05-2017 19:15:00 25 C 6.91 g/m*3 25 C 1.6 km/h
233 15-05-2017 19:20:00 24.7 C 8.83 g/m*3 24.7 C 0 km/h
234 15-05-2017 19:25:00 24.3 C 8.85 g/m*3 24.3 C 1.6 km/h
235 15-05-2017 19:30:00 23.9 C 8.87 g/m*3 23.9 C 1.6 km/h
236 15-05-2017 19:35:00 23.6 C 8.29 g/m*3 23.6 C 3.2 km/h
237 15-05-2017 19:40:00 23.2 C 8.52 g/m*3 23.2 C 0 km/h
238 15-05-2017 19:45:00 22.7 C 8.49 g/m*3 22.7 C 1.6 km/h
239 15-05-2017 19:50:00 22.3 C 8.29 g/m*3 22.3 C 0 km/h
240 15-05-2017 19:55:00 21.9 C 8.49 g/m*3 21.9 C 0 km/h
241 15-05-2017 20:00:00 21.6 C 8.72 g/m*3 21.6 C 1.6 km/h
242 15-05-2017 20:05:00 21.2 C 9.08 g/m*3 21.2 C 1.6 km/h
243 15-05-2017 20:10:00 21 C 8.98 g/m*3 21 C 1.6 km/h
244 15-05-2017 20:15:00 20.8 C 8.87 g/m*3 20.8 C 1.6 km/h
245 15-05-2017 20:20:00 20.6 C 8.95 g/m*3 20.6 C 0 km/h
246 15-05-2017 20:25:00 20.3 C 9.15 g/m*3 20.3 C 1.6 km/h
247 15-05-2017 20:30:00 19.9 C 8.59 g/m*3 19.9 C 1.6 km/h
248 15-05-2017 20:35:00 19.6 C 8.44 g/m*3 19.6 C 1.6 km/h
249 15-05-2017 20:40:00 19.2 C 8.41 g/m*3 19.2 C 1.6 km/h
250 15-05-2017 20:45:00 18.7 C 8.01 g/m*3 18.7 C 1.6 km/h
Sensor: Nr:Datum:Temp:Abs-Feuchte:Windchill:Wind:
Aussen-T/F 251 15-05-2017 20:50:00 18.3 C 7.97 g/m*3 18.3 C 0 km/h
252 15-05-2017 20:55:00 17.9 C 7.94 g/m*3 17.9 C 0 km/h
253 15-05-2017 21:00:00 17.6 C 7.8 g/m*3 17.6 C 0 km/h
254 15-05-2017 21:05:00 17.3 C 7.81 g/m*3 17.3 C 1.6 km/h
255 15-05-2017 21:10:00 17 C 7.81 g/m*3 17 C 1.6 km/h
256 15-05-2017 21:15:00 16.8 C 7.86 g/m*3 16.8 C 1.6 km/h
257 15-05-2017 21:20:00 16.5 C 8 g/m*3 16.5 C 1.6 km/h
258 15-05-2017 21:25:00 16.3 C 7.91 g/m*3 16.3 C 1.6 km/h
259 15-05-2017 21:30:00 16.1 C 7.95 g/m*3 16.1 C 1.6 km/h
260 15-05-2017 21:35:00 15.9 C 7.85 g/m*3 15.9 C 1.6 km/h
261 15-05-2017 21:40:00 15.7 C 7.89 g/m*3 15.7 C 0 km/h
262 15-05-2017 21:45:00 15.6 C 8.25 g/m*3 15.6 C 0 km/h
263 15-05-2017 21:50:00 15.3 C 7.7 g/m*3 15.3 C 0 km/h
264 15-05-2017 21:55:00 15.3 C 7.57 g/m*3 15.3 C 0 km/h
265 15-05-2017 22:00:00 15.2 C 8.05 g/m*3 15.2 C 0 km/h
266 15-05-2017 22:05:00 15 C 7.82 g/m*3 15 C 0 km/h
267 15-05-2017 22:10:00 14.8 C 7.85 g/m*3 14.8 C 0 km/h
268 15-05-2017 22:15:00 14.7 C 8.18 g/m*3 14.7 C 0 km/h
269 15-05-2017 22:20:00 14.4 C 8.16 g/m*3 14.4 C 0 km/h
270 15-05-2017 22:25:00 14.3 C 8.35 g/m*3 14.3 C 0 km/h
271 15-05-2017 22:30:00 14.1 C 8.25 g/m*3 14.1 C 0 km/h
272 15-05-2017 22:35:00 13.8 C 8.1 g/m*3 13.8 C 0 km/h
273 15-05-2017 22:40:00 13.6 C 8 g/m*3 13.6 C 0 km/h
274 15-05-2017 22:45:00 13.4 C 8.14 g/m*3 13.4 C 0 km/h
275 15-05-2017 22:50:00 13.2 C 8.15 g/m*3 13.2 C 0 km/h
Sensor: Nr:Datum:Temp:Abs-Feuchte:Windchill:Wind:
Aussen-T/F 276 15-05-2017 22:55:00 13.1 C 8.1 g/m*3 13.1 C 0 km/h
277 15-05-2017 23:00:00 12.9 C 7.78 g/m*3 12.9 C 0 km/h
278 15-05-2017 23:05:00 12.8 C 7.95 g/m*3 12.8 C 0 km/h
279 15-05-2017 23:10:00 12.7 C 8.01 g/m*3 12.7 C 0 km/h
280 15-05-2017 23:15:00 12.5 C 7.92 g/m*3 12.5 C 0 km/h
281 15-05-2017 23:20:00 12.3 C 7.93 g/m*3 12.3 C 0 km/h
282 15-05-2017 23:25:00 12.2 C 7.77 g/m*3 12.2 C 0 km/h
283 15-05-2017 23:30:00 12.1 C 7.83 g/m*3 12.1 C 0 km/h
284 15-05-2017 23:35:00 12 C 7.57 g/m*3 12 C 0 km/h
285 15-05-2017 23:40:00 11.9 C 7.63 g/m*3 11.9 C 0 km/h
286 15-05-2017 23:45:00 11.9 C 7.63 g/m*3 11.9 C 0 km/h
287 15-05-2017 23:50:00 11.8 C 7.68 g/m*3 11.8 C 0 km/h
288 15-05-2017 23:55:00 11.8 C 7.58 g/m*3 11.8 C 0 km/h

Legende:
   Min
   Max


Maximal/Minimal-Werte vom 15.05.2017 - 15.05.2017

Sensor Min Max Avg
Temp
(Aussen-T/F)
8.6 °C
15-05-2017  06:25:00
25.8 °C
15-05-2017  18:15:00
15.43 °C
Abs-Feuchte
(Aussen-T/F)
5.65 g/m*3
15-05-2017  18:30:00
11.17 g/m*3
15-05-2017  11:50:00
8.8 g/m*3
Windchill
(Aussen-T/F)
8.6 C
15-05-2017  06:25:00
25.8 C
15-05-2017  18:15:00
15.38 C

Die Daten stammen von einer Davis Vantage Pro 2 Wetter-Station und werden unter Linux mit der Software wview2wettercgi und aufbereitet. Alle Angaben erfolgen ohne Gewähr für ihre Vollständigkeit oder Richtigkeit.
Kontakt: Rainer Krienke krienke@uni-koblenz.de . Meine Webseiten an der Uni Koblenz oder privat.
Version: $Revision: 0.78 $